createdAt,value
2022-10-29T07:46:47.191Z,13.53
2022-10-29T07:49:19.153Z,13.61
2022-10-29T07:51:54.555Z,13.61
2022-10-29T07:54:33.005Z,13.76
2022-10-29T07:57:06.209Z,13.83
2022-10-29T07:59:38.758Z,13.94
2022-10-29T08:02:14.649Z,13.92
2022-10-29T08:04:50.320Z,13.98
2022-10-29T08:07:17.258Z,13.92
2022-10-29T08:09:44.149Z,14.01
2022-10-29T08:12:12.022Z,14.25
2022-10-29T08:14:42.099Z,14.25
2022-10-29T08:17:12.054Z,14.39
2022-10-29T08:19:44.213Z,14.56
2022-10-29T08:22:19.604Z,14.64
2022-10-29T08:24:46.442Z,14.76
2022-10-29T08:27:21.733Z,14.81
2022-10-29T08:29:54.264Z,14.81
2022-10-29T08:32:26.443Z,14.79
2022-10-29T08:34:57.191Z,14.96
2022-10-29T08:37:32.057Z,15.13
2022-10-29T08:40:02.178Z,15.13
2022-10-29T08:42:51.649Z,15.08
2022-10-29T08:45:33.175Z,15.07
2022-10-29T08:48:34.149Z,15.20
2022-10-29T08:51:20.528Z,15.33
2022-10-29T08:56:55.539Z,15.56
2022-10-29T08:59:35.775Z,15.15
2022-10-29T09:02:16.032Z,15.35
2022-10-29T09:04:47.506Z,15.58
2022-10-29T09:07:42.178Z,15.74
2022-10-29T09:10:28.558Z,15.60
2022-10-29T09:13:22.033Z,16.08
2022-10-29T09:16:09.259Z,16.21
2022-10-29T09:19:04.567Z,16.72
2022-10-29T09:21:52.716Z,16.83
2022-10-29T09:24:47.198Z,17.25
2022-10-29T09:27:19.964Z,17.08
2022-10-29T09:29:55.861Z,17.10
2022-10-29T09:32:37.326Z,17.16
2022-10-29T09:35:31.759Z,17.68
2022-10-29T09:38:10.994Z,17.65
2022-10-29T09:40:44.034Z,17.94
2022-10-29T09:43:28.693Z,18.28
2022-10-29T09:46:05.079Z,18.36
2022-10-29T09:48:43.976Z,18.67
2022-10-29T09:51:35.048Z,17.93
2022-10-29T09:54:07.408Z,17.90
2022-10-29T09:56:54.800Z,18.19
2022-10-29T09:59:40.417Z,18.73
2022-10-29T10:02:33.385Z,18.82
2022-10-29T10:05:14.721Z,18.62
2022-10-29T10:07:45.022Z,18.50
2022-10-29T10:10:23.863Z,18.73
2022-10-29T10:13:04.562Z,19.37
2022-10-29T10:15:49.386Z,19.43
2022-10-29T10:18:38.821Z,19.20
2022-10-29T10:21:25.545Z,19.05
2022-10-29T10:23:59.770Z,18.87
2022-10-29T10:26:39.600Z,19.09
2022-10-29T10:29:17.831Z,19.68
2022-10-29T10:32:11.672Z,20.39
2022-10-29T10:34:44.110Z,20.40
2022-10-29T10:37:13.791Z,20.43
2022-10-29T10:39:48.009Z,20.13
2022-10-29T10:42:31.257Z,20.06
2022-10-29T10:45:17.261Z,19.97
2022-10-29T10:47:51.427Z,20.34
2022-10-29T10:50:25.365Z,20.90
2022-10-29T10:52:58.598Z,21.20
2022-10-29T10:55:31.922Z,21.06
2022-10-29T10:58:28.106Z,21.40
2022-10-29T11:01:02.498Z,21.84
2022-10-29T11:03:59.522Z,21.64
2022-10-29T11:06:32.696Z,22.18
2022-10-29T11:09:15.922Z,22.19
2022-10-29T11:11:48.274Z,22.52
2022-10-29T11:14:53.358Z,22.07
2022-10-29T11:17:41.157Z,22.40
2022-10-29T11:20:35.336Z,22.61
2022-10-29T11:23:33.497Z,22.75
2022-10-29T11:26:12.428Z,23.05
2022-10-29T11:28:47.901Z,23.15
2022-10-29T11:31:37.028Z,22.70
2022-10-29T11:34:28.222Z,22.45
2022-10-29T11:37:15.349Z,22.46
2022-10-29T11:39:54.578Z,22.47
2022-10-29T11:42:23.827Z,22.34
2022-10-29T11:44:53.906Z,22.68
2022-10-29T11:47:45.183Z,22.90
2022-10-29T11:50:38.567Z,22.96
2022-10-29T11:53:24.298Z,22.65
2022-10-29T11:56:13.476Z,22.45
2022-10-29T11:59:01.299Z,22.70
2022-10-29T12:01:40.998Z,22.67
2022-10-29T12:04:41.060Z,22.78
2022-10-29T12:07:26.691Z,23.10
2022-10-29T12:10:08.978Z,23.17
2022-10-29T12:12:55.611Z,23.74
2022-10-29T12:15:44.563Z,23.87
2022-10-29T12:18:37.486Z,24.12
2022-10-29T12:21:47.337Z,24.00
2022-10-29T12:24:52.139Z,23.61
2022-10-29T12:27:33.168Z,23.48
2022-10-29T12:30:15.645Z,23.21
2022-10-29T12:33:12.523Z,23.24
2022-10-29T12:35:55.911Z,22.96
2022-10-29T12:38:51.084Z,22.99
2022-10-29T12:41:35.475Z,22.36
2022-10-29T12:44:28.124Z,22.30
2022-10-29T12:47:22.764Z,22.57
2022-10-29T12:50:24.300Z,22.71
2022-10-29T12:53:04.848Z,23.19
2022-10-29T12:55:48.527Z,22.67
2022-10-29T12:58:55.164Z,22.47
2022-10-29T13:02:10.453Z,22.39
2022-10-29T13:04:50.217Z,22.35
2022-10-29T13:07:28.568Z,22.27
2022-10-29T13:10:25.092Z,22.43
2022-10-29T13:13:20.352Z,22.01
2022-10-29T13:16:00.774Z,22.11
2022-10-29T13:18:41.874Z,22.30
2022-10-29T13:21:33.108Z,22.16
2022-10-29T13:24:20.814Z,21.75
2022-10-29T13:27:11.649Z,21.88
2022-10-29T13:30:11.693Z,21.89
2022-10-29T13:32:41.122Z,21.88
2022-10-29T13:35:21.475Z,21.90
2022-10-29T13:38:10.669Z,21.64
2022-10-29T13:40:44.721Z,21.88
2022-10-29T13:43:24.493Z,21.91
2022-10-29T13:46:44.860Z,21.92
2022-10-29T13:49:39.554Z,22.03
2022-10-29T13:52:21.717Z,22.13
2022-10-29T13:55:03.863Z,22.35
2022-10-29T13:57:45.345Z,22.38
2022-10-29T14:00:38.170Z,22.43
2022-10-29T14:03:20.758Z,22.46
2022-10-29T14:05:50.151Z,22.63
2022-10-29T14:08:47.904Z,22.08
2022-10-29T14:11:26.288Z,22.49
2022-10-29T14:14:01.645Z,22.40
2022-10-29T14:16:37.007Z,22.34
2022-10-29T14:19:29.833Z,21.95
2022-10-29T14:22:20.368Z,22.21
2022-10-29T14:24:49.551Z,22.22
2022-10-29T14:27:29.699Z,22.46
2022-10-29T14:30:20.105Z,22.34
2022-10-29T14:32:55.184Z,22.53
2022-10-29T14:35:32.029Z,22.20
2022-10-29T14:38:12.594Z,22.30
2022-10-29T14:40:42.408Z,22.41
2022-10-29T14:43:32.692Z,22.39
2022-10-29T14:46:25.678Z,22.40
2022-10-29T14:49:03.814Z,22.42
2022-10-29T14:51:42.282Z,22.42
2022-10-29T14:54:39.397Z,22.36
2022-10-29T14:57:19.909Z,22.35
2022-10-29T14:59:59.270Z,22.24
2022-10-29T15:02:39.015Z,22.26
2022-10-29T15:05:28.895Z,22.27
2022-10-29T15:08:14.957Z,22.18
2022-10-29T15:11:01.503Z,22.16
2022-10-29T15:13:41.647Z,22.14
2022-10-29T15:16:19.478Z,22.04
2022-10-29T15:18:54.695Z,21.97
2022-10-29T15:21:35.706Z,22.00
2022-10-29T15:24:20.634Z,21.90
2022-10-29T15:26:56.851Z,21.81
2022-10-29T15:29:36.244Z,21.56
2022-10-29T15:32:05.982Z,21.50
2022-10-29T15:34:45.255Z,21.38
2022-10-29T15:37:55.629Z,21.39
2022-10-29T15:40:26.852Z,21.26
2022-10-29T15:43:49.937Z,21.02
2022-10-29T15:46:38.829Z,20.83
2022-10-29T15:49:22.403Z,20.72
2022-10-29T15:51:56.884Z,20.73
2022-10-29T15:54:31.710Z,20.77
2022-10-29T15:57:11.178Z,20.67
2022-10-29T15:59:45.684Z,20.79
2022-10-29T16:02:27.134Z,20.74
2022-10-29T16:05:09.615Z,20.81
2022-10-29T16:07:41.562Z,20.62
2022-10-29T16:10:25.398Z,20.29
2022-10-29T16:12:55.176Z,20.35
2022-10-29T16:15:32.363Z,20.00
2022-10-29T16:18:07.626Z,19.41
2022-10-29T16:20:37.981Z,19.69
2022-10-29T16:23:13.621Z,19.38
2022-10-29T16:25:43.257Z,19.74
2022-10-29T16:28:14.412Z,19.75
2022-10-29T16:30:44.903Z,19.87
2022-10-29T16:33:17.238Z,19.90
2022-10-29T16:35:47.697Z,19.71
2022-10-29T16:38:22.155Z,19.35
2022-10-29T16:40:58.648Z,19.50
2022-10-29T16:43:34.391Z,19.59
2022-10-29T16:46:06.115Z,19.60
2022-10-29T16:48:38.343Z,19.70
2022-10-29T16:51:08.131Z,19.60
2022-10-29T16:53:38.758Z,19.76
2022-10-29T16:56:10.808Z,19.58
2022-10-29T16:58:45.397Z,19.46
2022-10-29T17:01:18.105Z,19.56
2022-10-29T17:04:01.826Z,19.41
2022-10-29T17:06:30.577Z,19.40
2022-10-29T17:09:00.218Z,19.20
2022-10-29T17:11:32.634Z,19.17
2022-10-29T17:14:03.670Z,19.29
2022-10-29T17:16:40.179Z,19.23
2022-10-29T17:19:17.867Z,19.08
2022-10-29T17:21:49.321Z,19.03
2022-10-29T17:24:18.983Z,19.03
2022-10-29T17:26:51.100Z,18.96
2022-10-29T17:29:25.461Z,18.96
2022-10-29T17:34:37.145Z,18.73
2022-10-29T17:37:06.127Z,18.89
2022-10-29T17:39:35.203Z,18.94
2022-10-29T17:42:05.156Z,18.65
2022-10-29T17:44:35.158Z,18.58
2022-10-29T17:47:08.902Z,18.62
2022-10-29T17:49:43.206Z,18.64
2022-10-29T17:52:15.893Z,18.60
2022-10-29T17:58:26.735Z,18.45
2022-10-29T18:15:24.746Z,17.90
2022-10-29T18:18:18.271Z,17.61
2022-10-29T18:21:06.250Z,17.88
2022-10-29T18:24:06.186Z,17.83
2022-10-29T18:26:47.624Z,17.79
2022-10-29T18:29:38.505Z,17.74
2022-10-29T18:32:34.905Z,17.41
2022-10-29T18:35:29.371Z,17.27
2022-10-29T18:38:21.197Z,17.35
2022-10-29T18:41:21.088Z,17.21
2022-10-29T18:44:03.273Z,17.19
2022-10-29T18:46:53.159Z,17.24
2022-10-29T18:49:28.946Z,17.28
2022-10-29T18:52:25.195Z,17.23
2022-10-29T18:55:01.202Z,16.82
2022-10-29T18:57:38.184Z,17.12
2022-10-29T19:00:10.822Z,17.12
2022-10-29T19:02:51.733Z,16.65
2022-10-29T19:05:36.249Z,16.70
2022-10-29T19:08:15.410Z,16.72
2022-10-29T19:11:08.305Z,16.73
2022-10-29T19:14:11.879Z,16.83
2022-10-29T19:16:47.389Z,16.96
2022-10-29T19:19:24.083Z,16.94
2022-10-29T19:22:00.404Z,17.03
2022-10-29T19:24:54.347Z,16.95
2022-10-29T19:27:37.433Z,16.94
2022-10-29T19:30:21.213Z,16.96
2022-10-29T19:33:20.166Z,16.83
2022-10-29T19:36:32.035Z,16.91
2022-10-29T19:39:24.317Z,16.31
2022-10-29T19:41:58.975Z,16.57
2022-10-29T19:44:56.511Z,16.70
2022-10-29T19:47:34.987Z,16.71
2022-10-29T19:53:09.339Z,16.58
2022-10-29T19:55:51.605Z,16.54
2022-10-29T19:58:26.945Z,16.50
2022-10-29T20:01:06.960Z,16.55
2022-10-29T20:03:40.047Z,16.46
2022-10-29T20:06:10.430Z,16.40
2022-10-29T20:08:48.714Z,16.45
2022-10-29T20:11:17.724Z,16.49
2022-10-29T20:14:08.585Z,16.49
2022-10-29T20:16:36.068Z,16.60
2022-10-29T20:19:09.243Z,16.68
2022-10-29T20:21:41.678Z,16.70
2022-10-29T20:24:17.915Z,16.57
2022-10-29T20:26:52.380Z,16.39
2022-10-29T20:29:27.960Z,16.46
2022-10-29T20:32:20.301Z,16.36
2022-10-29T20:35:21.266Z,16.14
2022-10-29T20:38:17.356Z,16.31
2022-10-29T20:40:55.331Z,16.32
2022-10-29T20:43:34.588Z,16.41
2022-10-29T20:46:26.614Z,16.38
2022-10-29T20:49:05.605Z,16.28
2022-10-29T20:51:53.282Z,16.43
2022-10-29T20:54:31.689Z,16.18
2022-10-29T20:57:12.513Z,16.09
2022-10-29T21:00:08.302Z,16.07
2022-10-29T21:02:44.986Z,16.17
2022-10-29T21:05:16.181Z,16.24
2022-10-29T21:08:12.387Z,16.42
2022-10-29T21:11:09.306Z,16.24
2022-10-29T21:13:49.155Z,16.17
2022-10-29T21:16:46.193Z,16.19
2022-10-29T21:19:39.457Z,16.10
2022-10-29T21:22:23.963Z,16.09
2022-10-29T21:24:57.568Z,16.03
2022-10-29T21:27:45.086Z,15.85
2022-10-29T21:30:35.397Z,16.01
2022-10-29T21:33:10.824Z,15.74
2022-10-29T21:36:05.028Z,15.83
2022-10-29T21:38:58.866Z,15.91
2022-10-29T21:41:34.479Z,15.81
2022-10-29T21:44:08.711Z,15.67
2022-10-29T21:46:44.818Z,15.78
2022-10-29T21:49:20.865Z,15.84
2022-10-29T21:52:11.746Z,15.83
2022-10-29T21:54:50.462Z,15.80
2022-10-29T21:57:45.048Z,15.70
2022-10-29T22:00:19.883Z,15.29
2022-10-29T22:03:03.281Z,15.78
2022-10-29T22:05:41.189Z,15.69
2022-10-29T22:08:29.151Z,15.56
2022-10-29T22:11:20.368Z,15.62
2022-10-29T22:14:10.144Z,15.42
2022-10-29T22:16:41.297Z,15.57
2022-10-29T22:19:19.881Z,15.32
2022-10-29T22:22:15.447Z,15.53
2022-10-29T22:24:51.740Z,15.51
2022-10-29T22:27:27.803Z,15.56
2022-10-29T22:30:02.051Z,15.28
2022-10-29T22:32:41.176Z,15.46
2022-10-29T22:35:14.475Z,15.38
2022-10-29T22:37:48.979Z,15.02
2022-10-29T22:40:39.520Z,14.84
2022-10-29T22:43:12.120Z,15.20
2022-10-29T22:45:53.978Z,15.28
2022-10-29T22:48:42.161Z,15.22
2022-10-29T22:51:31.965Z,15.10
2022-10-29T22:54:11.635Z,15.15
2022-10-29T22:56:44.844Z,15.01
2022-10-29T22:59:33.470Z,15.00
2022-10-29T23:02:20.927Z,14.93
2022-10-29T23:05:12.347Z,14.90
2022-10-29T23:08:02.647Z,15.03
2022-10-29T23:10:47.699Z,14.89
2022-10-29T23:13:27.751Z,14.91
2022-10-29T23:15:55.062Z,14.81
2022-10-29T23:18:33.458Z,14.89
2022-10-29T23:21:43.844Z,15.01
2022-10-29T23:24:16.749Z,14.95
2022-10-29T23:27:12.865Z,14.97
2022-10-29T23:29:48.609Z,15.09
2022-10-29T23:32:22.096Z,14.86
2022-10-29T23:34:51.699Z,15.17
2022-10-29T23:37:27.390Z,14.99
2022-10-29T23:40:03.741Z,15.03
2022-10-29T23:42:51.101Z,14.93
2022-10-29T23:45:41.640Z,14.78
2022-10-29T23:48:24.560Z,14.86
2022-10-29T23:51:12.414Z,15.08
2022-10-29T23:53:53.154Z,15.08
2022-10-29T23:56:43.067Z,15.02
2022-10-29T23:59:34.307Z,14.88
